createdAt,value
2023-06-19T00:02:02.590Z,100365.38
2023-06-19T00:04:48.148Z,100361.06
2023-06-19T00:07:33.555Z,100362.03
2023-06-19T00:10:19.001Z,100360.41
2023-06-19T00:13:04.655Z,100361.25
2023-06-19T00:15:50.268Z,100357.78
2023-06-19T00:18:41.105Z,100356.03
2023-06-19T00:21:27.135Z,100354.31
2023-06-19T00:24:12.902Z,100350.78
2023-06-19T00:27:03.536Z,100357.88
2023-06-19T00:29:49.440Z,100352.59
2023-06-19T00:32:47.370Z,100353.50
2023-06-19T00:35:33.317Z,100351.72
2023-06-19T00:38:18.762Z,100344.72
2023-06-19T00:41:06.163Z,100340.34
2023-06-19T00:43:53.397Z,100341.25
2023-06-19T00:46:41.033Z,100333.31
2023-06-19T00:49:27.411Z,100328.00
2023-06-19T00:52:12.829Z,100325.38
2023-06-19T00:54:58.137Z,100329.78
2023-06-19T00:57:46.678Z,100323.66
2023-06-19T01:00:32.340Z,100335.91
2023-06-19T01:03:19.076Z,100325.38
2023-06-19T01:06:10.090Z,100322.69
2023-06-19T01:09:08.591Z,100323.75
2023-06-19T01:11:58.657Z,100320.41
2023-06-19T01:14:55.163Z,100319.75
2023-06-19T01:17:42.598Z,100314.69
2023-06-19T01:20:29.933Z,100312.34
2023-06-19T01:23:15.646Z,100316.94
2023-06-19T01:26:00.999Z,100320.69
2023-06-19T01:28:47.455Z,100317.34
2023-06-19T01:31:44.031Z,100314.81
2023-06-19T01:34:31.789Z,100311.44
2023-06-19T01:37:17.894Z,100310.72
2023-06-19T01:40:07.473Z,100316.13
2023-06-19T01:42:56.609Z,100315.31
2023-06-19T01:45:42.407Z,100310.91
2023-06-19T01:48:28.740Z,100314.44
2023-06-19T01:51:14.112Z,100310.91
2023-06-19T01:53:59.504Z,100303.78
2023-06-19T01:56:44.873Z,100308.22
2023-06-19T01:59:30.363Z,100311.75
2023-06-19T02:02:15.758Z,100306.59
2023-06-19T02:05:01.099Z,100314.47
2023-06-19T02:07:49.098Z,100305.78
2023-06-19T02:10:35.636Z,100306.75
2023-06-19T02:13:21.723Z,100308.59
2023-06-19T02:16:07.266Z,100304.31
2023-06-19T02:18:53.088Z,100307.00
2023-06-19T02:21:39.413Z,100297.47
2023-06-19T02:24:24.850Z,100303.69
2023-06-19T02:27:10.103Z,100297.56
2023-06-19T02:29:55.549Z,100298.41
2023-06-19T02:32:41.031Z,100296.66
2023-06-19T02:35:26.707Z,100299.31
2023-06-19T02:38:15.962Z,100298.47
2023-06-19T02:41:04.384Z,100297.72
2023-06-19T02:43:51.698Z,100291.63
2023-06-19T02:46:37.247Z,100297.91
2023-06-19T02:49:22.777Z,100296.28
2023-06-19T02:52:08.856Z,100294.63
2023-06-19T02:54:55.137Z,100298.19
2023-06-19T02:57:40.494Z,100293.88
2023-06-19T03:00:26.374Z,100286.91
2023-06-19T03:03:13.439Z,100291.41
2023-06-19T03:06:02.238Z,100295.06
2023-06-19T03:08:50.557Z,100287.34
2023-06-19T03:11:37.429Z,100290.09
2023-06-19T03:14:22.939Z,100295.41
2023-06-19T03:17:08.480Z,100292.84
2023-06-19T03:19:53.955Z,100296.28
2023-06-19T03:22:43.321Z,100296.28
2023-06-19T03:25:36.216Z,100307.66
2023-06-19T03:28:22.783Z,100305.06
2023-06-19T03:31:08.683Z,100312.13
2023-06-19T03:33:54.551Z,100313.06
2023-06-19T03:36:41.471Z,100315.72
2023-06-19T03:39:29.414Z,100323.59
2023-06-19T03:42:21.864Z,100327.22
2023-06-19T03:45:08.295Z,100316.84
2023-06-19T03:47:54.540Z,100311.75
2023-06-19T03:50:40.368Z,100310.88
2023-06-19T03:53:26.903Z,100319.66
2023-06-19T03:56:13.310Z,100315.31
2023-06-19T03:58:58.648Z,100310.13
2023-06-19T04:01:44.238Z,100312.00
2023-06-19T04:04:29.979Z,100314.66
2023-06-19T04:07:15.381Z,100312.06
2023-06-19T04:10:01.327Z,100320.84
2023-06-19T04:12:47.335Z,100322.66
2023-06-19T04:15:33.504Z,100328.84
2023-06-19T04:18:19.268Z,100331.53
2023-06-19T04:21:04.679Z,100332.44
2023-06-19T04:23:51.667Z,100326.38
2023-06-19T04:26:39.982Z,100322.91
2023-06-19T04:29:25.693Z,100322.91
2023-06-19T04:32:14.454Z,100329.81
2023-06-19T04:35:00.215Z,100334.19
2023-06-19T04:37:45.877Z,100328.94
2023-06-19T04:40:31.190Z,100332.41
2023-06-19T04:43:16.591Z,100328.84
2023-06-19T04:46:01.910Z,100338.38
2023-06-19T04:48:51.791Z,100344.34
2023-06-19T04:51:37.416Z,100352.94
2023-06-19T04:54:22.977Z,100356.22
2023-06-19T04:57:08.471Z,100363.06
2023-06-19T04:59:54.185Z,100355.03
2023-06-19T05:02:39.799Z,100351.38
2023-06-19T05:05:25.338Z,100353.88
2023-06-19T05:08:10.824Z,100360.72
2023-06-19T05:10:57.614Z,100367.59
2023-06-19T05:13:43.030Z,100357.81
2023-06-19T05:16:28.523Z,100356.81
2023-06-19T05:19:14.373Z,100346.16
2023-06-19T05:21:59.725Z,100348.75
2023-06-19T05:24:45.221Z,100343.38
2023-06-19T05:27:31.022Z,100343.25
2023-06-19T05:30:16.310Z,100343.16
2023-06-19T05:33:02.055Z,100333.50
2023-06-19T05:35:53.724Z,100340.47
2023-06-19T05:38:39.187Z,100341.34
2023-06-19T05:41:24.714Z,100343.00
2023-06-19T05:44:11.048Z,100347.28
2023-06-19T05:46:56.564Z,100344.59
2023-06-19T05:49:42.418Z,100342.66
2023-06-19T05:52:28.020Z,100338.97
2023-06-19T05:55:13.672Z,100341.41
2023-06-19T05:57:59.111Z,100336.03
2023-06-19T06:00:44.442Z,100336.69
2023-06-19T06:03:31.392Z,100331.34
2023-06-19T06:06:16.922Z,100327.66
2023-06-19T06:09:02.334Z,100321.34
2023-06-19T06:11:48.210Z,100317.75
2023-06-19T06:14:33.834Z,100324.59
2023-06-19T06:17:19.246Z,100315.66
2023-06-19T06:20:14.121Z,100324.31
2023-06-19T06:22:59.674Z,100320.66
2023-06-19T06:25:46.795Z,100316.13
2023-06-19T06:28:32.885Z,100323.84
2023-06-19T06:31:18.264Z,100314.84
2023-06-19T06:34:03.588Z,100316.38
2023-06-19T06:36:57.080Z,100315.19
2023-06-19T06:39:51.047Z,100320.03
2023-06-19T06:42:36.304Z,100321.28
2023-06-19T06:45:21.868Z,100312.28
2023-06-19T06:48:08.237Z,100320.13
2023-06-19T06:51:00.197Z,100307.84
2023-06-19T06:53:46.037Z,100312.22
2023-06-19T06:56:31.536Z,100304.16
2023-06-19T06:59:16.909Z,100307.50
2023-06-19T07:02:02.390Z,100313.47
2023-06-19T07:04:47.606Z,100310.75
2023-06-19T07:07:33.018Z,100314.00
2023-06-19T07:10:18.420Z,100313.56
2023-06-19T07:13:03.676Z,100313.94
2023-06-19T07:15:49.090Z,100312.69
2023-06-19T07:18:36.352Z,100316.63
2023-06-19T07:21:21.811Z,100312.91
2023-06-19T07:24:07.639Z,100310.22
2023-06-19T07:26:53.354Z,100313.59
2023-06-19T07:29:38.712Z,100306.56
2023-06-19T07:32:24.443Z,100313.38
2023-06-19T07:35:10.304Z,100312.44
2023-06-19T07:37:56.041Z,100322.94
2023-06-19T07:40:41.735Z,100310.94
2023-06-19T07:43:27.245Z,100323.22
2023-06-19T07:46:12.745Z,100327.59
2023-06-19T07:48:58.455Z,100318.06
2023-06-19T07:51:43.925Z,100319.78
2023-06-19T07:54:29.171Z,100322.44
2023-06-19T07:57:14.624Z,100317.88
2023-06-19T07:59:59.924Z,100318.47
2023-06-19T08:02:45.412Z,100317.22
2023-06-19T08:05:30.880Z,100316.75
2023-06-19T08:08:16.088Z,100330.34
2023-06-19T08:11:01.461Z,100320.41
2023-06-19T08:13:46.914Z,100319.56
2023-06-19T08:16:32.482Z,100312.31
2023-06-19T08:19:18.265Z,100312.25
2023-06-19T08:22:03.835Z,100314.16
2023-06-19T08:24:49.665Z,100322.94
2023-06-19T08:27:35.012Z,100318.97
2023-06-19T08:30:20.495Z,100321.13
2023-06-19T08:33:05.902Z,100314.53
2023-06-19T08:35:51.201Z,100316.69
2023-06-19T08:38:36.417Z,100316.09
2023-06-19T08:41:21.888Z,100315.88
2023-06-19T08:44:07.733Z,100320.81
2023-06-19T08:46:53.730Z,100318.59
2023-06-19T08:49:39.141Z,100308.81
2023-06-19T08:52:24.885Z,100307.97
2023-06-19T08:55:11.590Z,100311.19
2023-06-19T08:57:57.218Z,100310.66
2023-06-19T09:00:48.956Z,100314.63
2023-06-19T09:03:34.833Z,100309.91
2023-06-19T09:06:20.635Z,100306.50
2023-06-19T09:09:12.070Z,100307.28
2023-06-19T09:12:14.193Z,100307.00
2023-06-19T09:15:01.590Z,100300.59
2023-06-19T09:17:46.824Z,100305.66
2023-06-19T09:20:45.601Z,100302.00
2023-06-19T09:23:31.291Z,100305.03
2023-06-19T09:26:21.467Z,100309.13
2023-06-19T09:29:21.644Z,100306.00
2023-06-19T09:32:18.320Z,100303.06
2023-06-19T09:35:05.494Z,100308.56
2023-06-19T09:37:53.077Z,100309.06
2023-06-19T09:40:38.871Z,100313.03
2023-06-19T09:43:27.081Z,100306.16
2023-06-19T09:46:13.154Z,100308.03
2023-06-19T09:49:02.686Z,100303.72
2023-06-19T09:51:48.820Z,100297.91
2023-06-19T09:54:35.097Z,100301.47
2023-06-19T09:57:21.182Z,100308.59
2023-06-19T10:00:23.574Z,100310.47
2023-06-19T10:03:13.700Z,100302.59
2023-06-19T10:06:01.229Z,100304.94
2023-06-19T10:08:47.491Z,100295.53
2023-06-19T10:11:49.229Z,100289.38
2023-06-19T10:14:34.439Z,100287.06
2023-06-19T10:17:20.111Z,100288.31
2023-06-19T10:20:12.606Z,100283.31
2023-06-19T10:23:06.530Z,100281.63
2023-06-19T10:25:54.977Z,100285.78
2023-06-19T10:28:41.153Z,100283.56
2023-06-19T10:31:26.501Z,100293.72
2023-06-19T10:34:13.149Z,100293.31
2023-06-19T10:36:59.893Z,100295.25
2023-06-19T10:39:45.846Z,100294.66
2023-06-19T10:42:32.877Z,100297.28
2023-06-19T10:45:18.224Z,100294.25
2023-06-19T10:48:06.462Z,100299.78
2023-06-19T10:50:52.588Z,100292.53
2023-06-19T10:53:38.059Z,100297.22
2023-06-19T10:56:24.667Z,100296.06
2023-06-19T10:59:12.679Z,100306.00
2023-06-19T11:01:58.649Z,100296.13
2023-06-19T11:04:44.279Z,100299.81
2023-06-19T11:07:29.706Z,100291.97
2023-06-19T11:10:20.861Z,100293.59
2023-06-19T11:13:06.522Z,100283.03
2023-06-19T11:15:52.338Z,100280.75
2023-06-19T11:18:37.903Z,100284.78
2023-06-19T11:21:31.296Z,100274.69
2023-06-19T11:24:17.509Z,100278.34
2023-06-19T11:27:04.045Z,100279.22
2023-06-19T11:29:49.319Z,100280.88
2023-06-19T11:32:42.645Z,100273.94
2023-06-19T11:35:37.827Z,100270.53
2023-06-19T11:38:27.307Z,100263.03
2023-06-19T11:41:13.381Z,100259.16
2023-06-19T11:44:05.106Z,100266.84
2023-06-19T11:46:50.645Z,100262.69
2023-06-19T11:49:37.195Z,100259.44
2023-06-19T11:52:22.542Z,100262.44
2023-06-19T11:55:08.845Z,100261.19
2023-06-19T11:57:54.544Z,100253.72
2023-06-19T12:00:40.278Z,100262.53
2023-06-19T12:03:25.721Z,100282.69
2023-06-19T12:06:11.373Z,100264.03
2023-06-19T12:08:56.876Z,100268.91
2023-06-19T12:11:42.569Z,100268.19
2023-06-19T12:14:28.379Z,100259.94
2023-06-19T12:17:13.995Z,100260.34
2023-06-19T12:20:00.361Z,100261.53
2023-06-19T12:22:45.664Z,100270.63
2023-06-19T12:25:31.028Z,100256.88
2023-06-19T12:28:19.717Z,100253.59
2023-06-19T12:31:05.470Z,100259.53
2023-06-19T12:33:51.381Z,100269.22
2023-06-19T12:36:37.020Z,100258.75
2023-06-19T12:39:22.921Z,100258.19
2023-06-19T12:42:09.091Z,100258.03
2023-06-19T12:44:54.892Z,100266.97
2023-06-19T12:47:40.353Z,100272.13
2023-06-19T12:50:26.038Z,100271.09
2023-06-19T12:53:12.760Z,100258.44
2023-06-19T12:56:02.348Z,100261.53
2023-06-19T12:58:49.447Z,100264.69
2023-06-19T13:01:34.849Z,100268.66
2023-06-19T13:04:20.109Z,100267.31
2023-06-19T13:07:05.649Z,100271.22
2023-06-19T13:09:50.992Z,100280.00
2023-06-19T13:12:36.323Z,100284.81
2023-06-19T13:15:21.600Z,100284.50
2023-06-19T13:18:07.042Z,100282.22
2023-06-19T13:20:52.938Z,100287.94
2023-06-19T13:23:38.126Z,100283.41
2023-06-19T13:26:23.476Z,100285.22
2023-06-19T13:29:08.866Z,100284.75
2023-06-19T13:31:54.441Z,100284.34
2023-06-19T13:34:39.765Z,100286.34
2023-06-19T13:37:25.199Z,100290.78
2023-06-19T13:40:10.947Z,100297.22
2023-06-19T13:42:56.577Z,100289.06
2023-06-19T13:45:42.074Z,100301.22
2023-06-19T13:48:28.879Z,100298.28
2023-06-19T13:51:14.249Z,100293.09
2023-06-19T13:54:00.040Z,100288.53
2023-06-19T13:56:45.244Z,100290.66
2023-06-19T13:59:30.710Z,100288.44
2023-06-19T14:02:16.257Z,100285.13
2023-06-19T14:05:01.552Z,100294.75
2023-06-19T14:07:47.006Z,100289.47
2023-06-19T14:10:32.290Z,100297.09
2023-06-19T14:13:18.234Z,100304.69
2023-06-19T14:16:04.065Z,100306.78
2023-06-19T14:18:49.724Z,100305.47
2023-06-19T14:21:35.044Z,100307.84
2023-06-19T14:24:20.415Z,100308.34
2023-06-19T14:27:06.675Z,100302.03
2023-06-19T14:29:52.111Z,100302.06
2023-06-19T14:32:38.189Z,100311.53
2023-06-19T14:35:23.554Z,100316.88
2023-06-19T14:38:09.027Z,100309.22
2023-06-19T14:40:55.241Z,100309.56
2023-06-19T14:43:40.884Z,100306.94
2023-06-19T14:46:37.287Z,100307.25
2023-06-19T14:49:24.044Z,100302.81
2023-06-19T14:52:09.424Z,100307.19
2023-06-19T14:54:57.674Z,100303.31
2023-06-19T14:57:45.196Z,100301.19
2023-06-19T15:00:30.669Z,100301.44
2023-06-19T15:03:15.977Z,100302.88
2023-06-19T15:06:01.936Z,100306.84
2023-06-19T15:08:47.566Z,100304.03
2023-06-19T15:11:33.788Z,100315.28
2023-06-19T15:14:20.671Z,100302.03
2023-06-19T15:17:06.715Z,100303.19
2023-06-19T15:19:52.091Z,100303.31
2023-06-19T15:22:40.533Z,100295.00
2023-06-19T15:25:26.251Z,100292.38
2023-06-19T15:28:13.060Z,100284.06
2023-06-19T15:30:58.691Z,100288.00
2023-06-19T15:33:44.565Z,100291.94
2023-06-19T15:36:29.884Z,100299.13
2023-06-19T15:39:15.366Z,100292.03
2023-06-19T15:42:00.787Z,100283.97
2023-06-19T15:44:46.053Z,100283.78
2023-06-19T15:47:33.463Z,100285.47
2023-06-19T15:50:18.918Z,100279.59
2023-06-19T15:53:04.288Z,100285.97
2023-06-19T15:55:49.917Z,100288.69
2023-06-19T15:58:35.246Z,100284.41
2023-06-19T16:01:20.800Z,100286.16
2023-06-19T16:04:06.286Z,100281.91
2023-06-19T16:06:52.384Z,100274.72
2023-06-19T16:09:50.361Z,100281.47
2023-06-19T16:12:40.288Z,100278.66
2023-06-19T16:15:29.107Z,100272.13
2023-06-19T16:18:14.826Z,100269.44
2023-06-19T16:21:00.696Z,100278.53
2023-06-19T16:23:46.310Z,100283.66
2023-06-19T16:26:31.648Z,100286.84
2023-06-19T16:29:17.057Z,100272.00
2023-06-19T16:32:09.693Z,100279.94
2023-06-19T16:34:57.701Z,100278.13
2023-06-19T16:37:43.487Z,100271.63
2023-06-19T16:40:28.818Z,100270.25
2023-06-19T16:43:14.742Z,100273.66
2023-06-19T16:46:00.009Z,100264.28
2023-06-19T16:48:45.540Z,100262.31
2023-06-19T16:51:31.561Z,100266.94
2023-06-19T16:54:17.209Z,100270.63
2023-06-19T16:57:02.883Z,100264.03
2023-06-19T16:59:48.618Z,100267.34
2023-06-19T17:02:34.515Z,100262.66
2023-06-19T17:05:22.210Z,100263.59
2023-06-19T17:08:07.784Z,100266.03
2023-06-19T17:10:53.113Z,100257.66
2023-06-19T17:13:38.477Z,100266.59
2023-06-19T17:16:23.820Z,100262.00
2023-06-19T17:19:09.364Z,100263.91
2023-06-19T17:21:55.617Z,100274.69
2023-06-19T17:24:41.403Z,100264.69
2023-06-19T17:27:27.116Z,100273.91
2023-06-19T17:30:13.411Z,100272.34
2023-06-19T17:32:59.055Z,100266.28
2023-06-19T17:35:44.690Z,100264.03
2023-06-19T17:38:30.066Z,100271.03
2023-06-19T17:41:15.437Z,100268.13
2023-06-19T17:44:04.809Z,100279.03
2023-06-19T17:46:50.263Z,100279.16
2023-06-19T17:49:35.654Z,100276.19
2023-06-19T17:52:21.037Z,100277.94
2023-06-19T17:55:08.698Z,100284.00
2023-06-19T17:57:54.197Z,100271.44
2023-06-19T18:00:39.900Z,100275.25
2023-06-19T18:03:25.807Z,100267.34
2023-06-19T18:06:11.439Z,100267.84
2023-06-19T18:08:56.762Z,100277.97
2023-06-19T18:11:41.974Z,100263.03
2023-06-19T18:14:28.375Z,100274.63
2023-06-19T18:17:14.494Z,100281.31
2023-06-19T18:20:00.137Z,100278.16
2023-06-19T18:22:45.426Z,100278.69
2023-06-19T18:25:30.680Z,100281.81
2023-06-19T18:28:15.947Z,100288.38
2023-06-19T18:31:01.309Z,100302.91
2023-06-19T18:33:46.620Z,100306.03
2023-06-19T18:36:32.051Z,100304.28
2023-06-19T18:39:17.156Z,100308.19
2023-06-19T18:42:03.456Z,100312.44
2023-06-19T18:44:48.946Z,100313.19
2023-06-19T18:47:34.389Z,100317.28
2023-06-19T18:50:20.311Z,100310.28
2023-06-19T18:53:05.691Z,100311.25
2023-06-19T18:55:51.523Z,100308.97
2023-06-19T18:58:37.316Z,100314.28
2023-06-19T19:01:22.620Z,100309.28
2023-06-19T19:04:08.091Z,100313.31
2023-06-19T19:06:53.305Z,100319.19
2023-06-19T19:09:38.689Z,100314.25
2023-06-19T19:12:24.105Z,100320.66
2023-06-19T19:15:09.796Z,100317.72
2023-06-19T19:17:55.647Z,100310.56
2023-06-19T19:20:41.457Z,100325.03
2023-06-19T19:23:26.890Z,100332.41
2023-06-19T19:26:12.298Z,100334.56
2023-06-19T19:28:57.860Z,100339.00
2023-06-19T19:31:43.280Z,100334.59
2023-06-19T19:34:28.528Z,100340.59
2023-06-19T19:37:13.986Z,100340.97
2023-06-19T19:40:00.369Z,100346.53
2023-06-19T19:42:45.641Z,100349.84
2023-06-19T19:45:34.087Z,100346.03
2023-06-19T19:48:19.488Z,100358.78
2023-06-19T19:51:04.760Z,100354.94
2023-06-19T19:53:50.436Z,100363.31
2023-06-19T19:56:35.673Z,100355.81
2023-06-19T19:59:21.147Z,100358.91
2023-06-19T20:02:11.214Z,100364.69
2023-06-19T20:04:56.705Z,100365.00
2023-06-19T20:07:42.158Z,100370.69
2023-06-19T20:10:27.865Z,100365.84
2023-06-19T20:13:13.380Z,100367.91
2023-06-19T20:15:58.654Z,100370.91
2023-06-19T20:18:43.857Z,100377.44
2023-06-19T20:21:31.926Z,100379.72
2023-06-19T20:24:17.556Z,100383.59
2023-06-19T20:27:03.715Z,100387.53
2023-06-19T20:29:49.277Z,100391.41
2023-06-19T20:32:34.600Z,100399.66
2023-06-19T20:35:21.409Z,100394.72
2023-06-19T20:38:07.139Z,100396.84
2023-06-19T20:40:52.568Z,100401.66
2023-06-19T20:43:38.032Z,100405.38
2023-06-19T20:46:23.412Z,100410.13
2023-06-19T20:49:08.879Z,100413.06
2023-06-19T20:51:54.416Z,100415.84
2023-06-19T20:54:40.572Z,100418.72
2023-06-19T20:57:26.310Z,100425.84
2023-06-19T21:00:12.299Z,100426.91
2023-06-19T21:02:58.309Z,100432.31
2023-06-19T21:05:43.929Z,100424.59
2023-06-19T21:08:32.368Z,100432.72
2023-06-19T21:11:17.748Z,100434.75
2023-06-19T21:14:03.265Z,100432.34
2023-06-19T21:16:48.785Z,100442.22
2023-06-19T21:19:34.251Z,100437.13
2023-06-19T21:22:19.648Z,100454.09
2023-06-19T21:25:06.949Z,100454.41
2023-06-19T21:27:52.409Z,100460.75
2023-06-19T21:30:37.631Z,100456.44
2023-06-19T21:33:25.032Z,100456.50
2023-06-19T21:36:10.887Z,100461.97
2023-06-19T21:38:56.580Z,100456.97
2023-06-19T21:41:41.923Z,100473.91
2023-06-19T21:44:27.291Z,100469.91
2023-06-19T21:47:12.710Z,100468.41
2023-06-19T21:49:58.142Z,100466.91
2023-06-19T21:52:43.442Z,100470.59
2023-06-19T21:55:29.069Z,100469.78
2023-06-19T21:58:14.530Z,100475.19
2023-06-19T22:00:59.835Z,100469.97
2023-06-19T22:03:45.442Z,100464.56
2023-06-19T22:06:31.148Z,100468.94
2023-06-19T22:09:16.537Z,100467.25
2023-06-19T22:12:02.214Z,100471.84
2023-06-19T22:14:47.434Z,100473.81
2023-06-19T22:17:33.016Z,100473.81
2023-06-19T22:20:19.767Z,100469.56
2023-06-19T22:23:05.666Z,100463.56
2023-06-19T22:25:51.067Z,100468.91
2023-06-19T22:28:36.478Z,100462.75
2023-06-19T22:31:21.952Z,100459.25
2023-06-19T22:34:07.340Z,100450.44
2023-06-19T22:36:52.926Z,100458.44
2023-06-19T22:39:38.375Z,100456.00
2023-06-19T22:42:23.809Z,100455.25
2023-06-19T22:45:10.800Z,100451.94
2023-06-19T22:47:56.393Z,100449.59
2023-06-19T22:50:41.731Z,100454.22
2023-06-19T22:53:30.063Z,100446.56
2023-06-19T22:56:15.620Z,100435.53
2023-06-19T22:59:01.130Z,100438.41
2023-06-19T23:01:46.602Z,100437.78
2023-06-19T23:04:32.028Z,100436.28
2023-06-19T23:07:17.400Z,100435.50
2023-06-19T23:10:09.008Z,100436.53
2023-06-19T23:12:54.742Z,100436.63
2023-06-19T23:15:40.127Z,100440.28
2023-06-19T23:18:25.479Z,100436.97
2023-06-19T23:21:10.916Z,100433.63
2023-06-19T23:23:56.221Z,100432.88
2023-06-19T23:26:41.480Z,100439.19
2023-06-19T23:29:26.891Z,100440.34
2023-06-19T23:32:12.120Z,100438.84
2023-06-19T23:34:59.135Z,100445.22
2023-06-19T23:37:44.655Z,100439.22
2023-06-19T23:40:29.962Z,100442.84
2023-06-19T23:43:15.363Z,100444.78
2023-06-19T23:46:00.615Z,100451.09
2023-06-19T23:48:46.319Z,100460.88
2023-06-19T23:51:31.916Z,100463.63
2023-06-19T23:54:17.504Z,100468.97
2023-06-19T23:57:03.990Z,100475.94
2023-06-19T23:59:49.483Z,100482.91
